sensor_id;sensor_type;location;lat;lon;timestamp;P1;durP1;ratioP1;P2;durP2;ratioP2
55720;SDS011;41626;53.098;6.168;2022-12-10T00:01:08;55.38;;;37.58;;
55720;SDS011;41626;53.098;6.168;2022-12-10T00:03:35;63.60;;;40.67;;
55720;SDS011;41626;53.098;6.168;2022-12-10T00:06:01;58.90;;;37.87;;
55720;SDS011;41626;53.098;6.168;2022-12-10T00:08:28;54.57;;;36.47;;
55720;SDS011;41626;53.098;6.168;2022-12-10T00:10:54;58.95;;;40.80;;
55720;SDS011;41626;53.098;6.168;2022-12-10T00:13:20;59.80;;;39.00;;
55720;SDS011;41626;53.098;6.168;2022-12-10T00:15:46;62.00;;;39.70;;
55720;SDS011;41626;53.098;6.168;2022-12-10T00:18:12;59.97;;;39.30;;
55720;SDS011;41626;53.098;6.168;2022-12-10T00:20:38;65.63;;;40.85;;
55720;SDS011;41626;53.098;6.168;2022-12-10T00:23:04;59.03;;;37.90;;
55720;SDS011;41626;53.098;6.168;2022-12-10T00:25:29;58.17;;;38.70;;
55720;SDS011;41626;53.098;6.168;2022-12-10T00:27:57;59.13;;;39.13;;
55720;SDS011;41626;53.098;6.168;2022-12-10T00:30:22;58.92;;;38.85;;
55720;SDS011;41626;53.098;6.168;2022-12-10T00:32:48;63.78;;;40.25;;
55720;SDS011;41626;53.098;6.168;2022-12-10T00:35:14;61.70;;;40.80;;
55720;SDS011;41626;53.098;6.168;2022-12-10T00:37:40;60.80;;;38.30;;
55720;SDS011;41626;53.098;6.168;2022-12-10T00:40:06;57.60;;;41.00;;
55720;SDS011;41626;53.098;6.168;2022-12-10T00:42:32;63.17;;;40.63;;
55720;SDS011;41626;53.098;6.168;2022-12-10T00:44:58;61.70;;;40.95;;
55720;SDS011;41626;53.098;6.168;2022-12-10T00:47:24;61.90;;;40.15;;
55720;SDS011;41626;53.098;6.168;2022-12-10T00:49:49;67.78;;;42.97;;
55720;SDS011;41626;53.098;6.168;2022-12-10T00:52:15;65.77;;;42.00;;
55720;SDS011;41626;53.098;6.168;2022-12-10T00:54:41;64.93;;;41.70;;
55720;SDS011;41626;53.098;6.168;2022-12-10T00:57:09;62.22;;;40.20;;
55720;SDS011;41626;53.098;6.168;2022-12-10T00:59:34;59.15;;;39.03;;
55720;SDS011;41626;53.098;6.168;2022-12-10T01:02:00;61.55;;;41.25;;
55720;SDS011;41626;53.098;6.168;2022-12-10T01:04:26;61.20;;;42.27;;
55720;SDS011;41626;53.098;6.168;2022-12-10T01:06:52;58.47;;;39.77;;
55720;SDS011;41626;53.098;6.168;2022-12-10T01:09:20;61.05;;;39.72;;
55720;SDS011;41626;53.098;6.168;2022-12-10T01:11:49;62.35;;;41.05;;
55720;SDS011;41626;53.098;6.168;2022-12-10T01:14:20;64.07;;;40.50;;
55720;SDS011;41626;53.098;6.168;2022-12-10T01:16:48;65.83;;;42.10;;
55720;SDS011;41626;53.098;6.168;2022-12-10T01:19:17;62.78;;;41.80;;
55720;SDS011;41626;53.098;6.168;2022-12-10T01:21:43;65.40;;;42.13;;
55720;SDS011;41626;53.098;6.168;2022-12-10T01:24:10;62.53;;;41.17;;
55720;SDS011;41626;53.098;6.168;2022-12-10T01:26:35;63.92;;;42.15;;
55720;SDS011;41626;53.098;6.168;2022-12-10T01:29:02;64.43;;;40.08;;
55720;SDS011;41626;53.098;6.168;2022-12-10T01:31:30;62.90;;;43.10;;
55720;SDS011;41626;53.098;6.168;2022-12-10T01:33:57;62.92;;;40.88;;
55720;SDS011;41626;53.098;6.168;2022-12-10T01:36:28;59.95;;;38.33;;
55720;SDS011;41626;53.098;6.168;2022-12-10T01:38:56;65.07;;;40.95;;
55720;SDS011;41626;53.098;6.168;2022-12-10T01:41:24;59.25;;;38.88;;
55720;SDS011;41626;53.098;6.168;2022-12-10T01:43:56;61.08;;;40.75;;
55720;SDS011;41626;53.098;6.168;2022-12-10T01:46:23;63.63;;;40.80;;
55720;SDS011;41626;53.098;6.168;2022-12-10T01:48:53;63.07;;;40.23;;
55720;SDS011;41626;53.098;6.168;2022-12-10T01:51:19;58.83;;;39.47;;
55720;SDS011;41626;53.098;6.168;2022-12-10T01:53:46;61.10;;;40.60;;
55720;SDS011;41626;53.098;6.168;2022-12-10T01:56:12;64.18;;;40.60;;
55720;SDS011;41626;53.098;6.168;2022-12-10T01:58:40;59.88;;;39.67;;
55720;SDS011;41626;53.098;6.168;2022-12-10T02:03:40;59.38;;;40.83;;
55720;SDS011;41626;53.098;6.168;2022-12-10T02:06:25;58.83;;;39.20;;
55720;SDS011;41626;53.098;6.168;2022-12-10T02:12:11;62.92;;;40.20;;
55720;SDS011;41626;53.098;6.168;2022-12-10T02:17:29;61.67;;;39.65;;
55720;SDS011;41626;53.098;6.168;2022-12-10T02:25:28;62.97;;;42.03;;
55720;SDS011;41626;53.098;6.168;2022-12-10T02:30:59;65.25;;;41.83;;
55720;SDS011;41626;53.098;6.168;2022-12-10T02:33:26;65.77;;;40.13;;
55720;SDS011;41626;53.098;6.168;2022-12-10T02:35:54;66.20;;;42.15;;
55720;SDS011;41626;53.098;6.168;2022-12-10T02:38:29;61.65;;;40.55;;
55720;SDS011;41626;53.098;6.168;2022-12-10T02:41:01;66.95;;;43.22;;
55720;SDS011;41626;53.098;6.168;2022-12-10T02:43:30;63.75;;;41.05;;
55720;SDS011;41626;53.098;6.168;2022-12-10T02:45:58;65.95;;;41.67;;
55720;SDS011;41626;53.098;6.168;2022-12-10T02:48:26;63.90;;;42.28;;
55720;SDS011;41626;53.098;6.168;2022-12-10T02:50:53;64.40;;;41.42;;
55720;SDS011;41626;53.098;6.168;2022-12-10T02:53:18;64.63;;;40.78;;
55720;SDS011;41626;53.098;6.168;2022-12-10T02:56:02;64.73;;;41.47;;
55720;SDS011;41626;53.098;6.168;2022-12-10T02:58:37;64.00;;;42.25;;
55720;SDS011;41626;53.098;6.168;2022-12-10T03:01:16;67.88;;;42.30;;
55720;SDS011;41626;53.098;6.168;2022-12-10T03:04:10;69.57;;;43.60;;
55720;SDS011;41626;53.098;6.168;2022-12-10T03:06:52;67.25;;;43.45;;
55720;SDS011;41626;53.098;6.168;2022-12-10T03:09:25;68.50;;;43.88;;
55720;SDS011;41626;53.098;6.168;2022-12-10T03:11:58;68.10;;;41.92;;
55720;SDS011;41626;53.098;6.168;2022-12-10T03:14:30;68.00;;;44.20;;
55720;SDS011;41626;53.098;6.168;2022-12-10T03:16:59;72.43;;;42.92;;
55720;SDS011;41626;53.098;6.168;2022-12-10T03:22:03;71.68;;;44.90;;
55720;SDS011;41626;53.098;6.168;2022-12-10T03:24:30;66.90;;;42.05;;
55720;SDS011;41626;53.098;6.168;2022-12-10T03:26:59;70.47;;;44.45;;
55720;SDS011;41626;53.098;6.168;2022-12-10T03:29:27;73.68;;;44.65;;
55720;SDS011;41626;53.098;6.168;2022-12-10T03:31:58;68.53;;;44.22;;
55720;SDS011;41626;53.098;6.168;2022-12-10T03:34:24;73.78;;;45.20;;
55720;SDS011;41626;53.098;6.168;2022-12-10T03:36:50;69.50;;;45.22;;
55720;SDS011;41626;53.098;6.168;2022-12-10T03:39:17;77.30;;;44.67;;
55720;SDS011;41626;53.098;6.168;2022-12-10T03:41:43;69.95;;;43.60;;
55720;SDS011;41626;53.098;6.168;2022-12-10T03:44:08;75.18;;;45.65;;
55720;SDS011;41626;53.098;6.168;2022-12-10T03:46:34;72.57;;;46.70;;
55720;SDS011;41626;53.098;6.168;2022-12-10T03:49:00;74.13;;;44.58;;
55720;SDS011;41626;53.098;6.168;2022-12-10T03:51:26;74.15;;;44.38;;
55720;SDS011;41626;53.098;6.168;2022-12-10T03:53:52;82.95;;;47.25;;
55720;SDS011;41626;53.098;6.168;2022-12-10T03:56:18;84.57;;;47.67;;
55720;SDS011;41626;53.098;6.168;2022-12-10T03:58:45;86.68;;;47.47;;
55720;SDS011;41626;53.098;6.168;2022-12-10T04:01:11;84.07;;;47.30;;
55720;SDS011;41626;53.098;6.168;2022-12-10T04:03:38;88.03;;;48.17;;
55720;SDS011;41626;53.098;6.168;2022-12-10T04:06:07;100.25;;;49.80;;
55720;SDS011;41626;53.098;6.168;2022-12-10T04:08:35;92.00;;;48.95;;
55720;SDS011;41626;53.098;6.168;2022-12-10T04:11:05;97.45;;;48.28;;
55720;SDS011;41626;53.098;6.168;2022-12-10T04:13:33;107.97;;;47.28;;
55720;SDS011;41626;53.098;6.168;2022-12-10T04:16:22;107.43;;;47.92;;
55720;SDS011;41626;53.098;6.168;2022-12-10T04:18:51;152.30;;;53.78;;
55720;SDS011;41626;53.098;6.168;2022-12-10T04:21:26;114.60;;;47.88;;
55720;SDS011;41626;53.098;6.168;2022-12-10T04:24:12;118.57;;;50.55;;
55720;SDS011;41626;53.098;6.168;2022-12-10T04:26:57;136.77;;;52.10;;
55720;SDS011;41626;53.098;6.168;2022-12-10T04:29:28;129.60;;;47.00;;
55720;SDS011;41626;53.098;6.168;2022-12-10T04:31:55;123.15;;;45.75;;
55720;SDS011;41626;53.098;6.168;2022-12-10T04:34:22;123.60;;;45.47;;
55720;SDS011;41626;53.098;6.168;2022-12-10T04:36:48;150.00;;;50.60;;
55720;SDS011;41626;53.098;6.168;2022-12-10T04:39:14;141.65;;;48.58;;
55720;SDS011;41626;53.098;6.168;2022-12-10T04:41:41;174.85;;;48.53;;
55720;SDS011;41626;53.098;6.168;2022-12-10T04:44:09;143.43;;;46.23;;
55720;SDS011;41626;53.098;6.168;2022-12-10T04:46:35;174.32;;;46.80;;
55720;SDS011;41626;53.098;6.168;2022-12-10T04:49:01;206.00;;;50.13;;
55720;SDS011;41626;53.098;6.168;2022-12-10T04:51:27;251.02;;;56.47;;
55720;SDS011;41626;53.098;6.168;2022-12-10T04:53:53;140.83;;;44.43;;
55720;SDS011;41626;53.098;6.168;2022-12-10T04:56:18;183.52;;;49.58;;
55720;SDS011;41626;53.098;6.168;2022-12-10T04:58:44;144.40;;;45.28;;
55720;SDS011;41626;53.098;6.168;2022-12-10T05:01:10;159.63;;;47.47;;
55720;SDS011;41626;53.098;6.168;2022-12-10T05:03:37;181.15;;;48.42;;
55720;SDS011;41626;53.098;6.168;2022-12-10T05:06:04;226.50;;;50.40;;
55720;SDS011;41626;53.098;6.168;2022-12-10T05:08:32;277.25;;;56.72;;
55720;SDS011;41626;53.098;6.168;2022-12-10T05:11:02;264.55;;;53.15;;
55720;SDS011;41626;53.098;6.168;2022-12-10T05:13:30;245.32;;;50.20;;
55720;SDS011;41626;53.098;6.168;2022-12-10T05:15:56;283.90;;;56.20;;
55720;SDS011;41626;53.098;6.168;2022-12-10T05:18:22;268.05;;;53.63;;
55720;SDS011;41626;53.098;6.168;2022-12-10T05:20:48;198.90;;;48.17;;
55720;SDS011;41626;53.098;6.168;2022-12-10T05:23:14;223.63;;;49.90;;
55720;SDS011;41626;53.098;6.168;2022-12-10T05:28:28;203.60;;;49.58;;
55720;SDS011;41626;53.098;6.168;2022-12-10T05:30:56;244.48;;;52.70;;
55720;SDS011;41626;53.098;6.168;2022-12-10T05:33:22;232.40;;;53.53;;
55720;SDS011;41626;53.098;6.168;2022-12-10T05:35:54;203.00;;;47.53;;
55720;SDS011;41626;53.098;6.168;2022-12-10T05:38:22;192.40;;;46.87;;
55720;SDS011;41626;53.098;6.168;2022-12-10T05:40:47;200.63;;;48.22;;
55720;SDS011;41626;53.098;6.168;2022-12-10T05:43:14;291.42;;;54.47;;
55720;SDS011;41626;53.098;6.168;2022-12-10T05:45:39;194.30;;;44.95;;
55720;SDS011;41626;53.098;6.168;2022-12-10T05:48:06;235.63;;;49.28;;
55720;SDS011;41626;53.098;6.168;2022-12-10T05:50:32;190.80;;;45.92;;
55720;SDS011;41626;53.098;6.168;2022-12-10T05:52:58;238.23;;;46.22;;
55720;SDS011;41626;53.098;6.168;2022-12-10T05:55:23;219.70;;;44.43;;
55720;SDS011;41626;53.098;6.168;2022-12-10T05:57:51;240.60;;;47.60;;
55720;SDS011;41626;53.098;6.168;2022-12-10T06:00:17;227.77;;;50.95;;
55720;SDS011;41626;53.098;6.168;2022-12-10T06:02:43;221.35;;;48.05;;
55720;SDS011;41626;53.098;6.168;2022-12-10T06:05:09;234.07;;;48.60;;
55720;SDS011;41626;53.098;6.168;2022-12-10T06:07:34;249.17;;;48.53;;
55720;SDS011;41626;53.098;6.168;2022-12-10T06:10:00;259.20;;;48.95;;
55720;SDS011;41626;53.098;6.168;2022-12-10T06:12:26;241.80;;;47.83;;
55720;SDS011;41626;53.098;6.168;2022-12-10T06:14:52;220.30;;;46.00;;
55720;SDS011;41626;53.098;6.168;2022-12-10T06:17:17;237.10;;;49.47;;
55720;SDS011;41626;53.098;6.168;2022-12-10T06:19:43;242.03;;;46.27;;
55720;SDS011;41626;53.098;6.168;2022-12-10T06:22:09;184.17;;;40.30;;
55720;SDS011;41626;53.098;6.168;2022-12-10T06:24:34;191.80;;;43.03;;
55720;SDS011;41626;53.098;6.168;2022-12-10T06:27:00;168.65;;;42.53;;
55720;SDS011;41626;53.098;6.168;2022-12-10T06:29:26;210.35;;;49.33;;
55720;SDS011;41626;53.098;6.168;2022-12-10T06:31:51;199.50;;;45.17;;
55720;SDS011;41626;53.098;6.168;2022-12-10T06:34:17;232.70;;;44.13;;
55720;SDS011;41626;53.098;6.168;2022-12-10T06:36:43;243.55;;;46.97;;
55720;SDS011;41626;53.098;6.168;2022-12-10T06:39:08;289.25;;;49.95;;
55720;SDS011;41626;53.098;6.168;2022-12-10T06:41:34;223.80;;;42.90;;
55720;SDS011;41626;53.098;6.168;2022-12-10T06:44:00;233.93;;;42.87;;
55720;SDS011;41626;53.098;6.168;2022-12-10T06:46:26;225.17;;;44.20;;
55720;SDS011;41626;53.098;6.168;2022-12-10T06:48:53;170.80;;;38.10;;
55720;SDS011;41626;53.098;6.168;2022-12-10T06:51:19;377.33;;;54.78;;
55720;SDS011;41626;53.098;6.168;2022-12-10T06:53:45;239.52;;;43.60;;
55720;SDS011;41626;53.098;6.168;2022-12-10T06:56:12;183.88;;;40.25;;
55720;SDS011;41626;53.098;6.168;2022-12-10T06:58:39;250.70;;;45.35;;
55720;SDS011;41626;53.098;6.168;2022-12-10T07:03:34;145.67;;;36.43;;
55720;SDS011;41626;53.098;6.168;2022-12-10T07:06:00;136.07;;;34.80;;
55720;SDS011;41626;53.098;6.168;2022-12-10T07:08:27;167.48;;;37.72;;
55720;SDS011;41626;53.098;6.168;2022-12-10T07:10:53;127.80;;;33.53;;
55720;SDS011;41626;53.098;6.168;2022-12-10T07:13:19;190.65;;;38.45;;
55720;SDS011;41626;53.098;6.168;2022-12-10T07:15:44;118.72;;;30.65;;
55720;SDS011;41626;53.098;6.168;2022-12-10T07:18:10;124.60;;;28.55;;
55720;SDS011;41626;53.098;6.168;2022-12-10T07:20:36;89.33;;;28.70;;
55720;SDS011;41626;53.098;6.168;2022-12-10T07:23:02;137.70;;;31.57;;
55720;SDS011;41626;53.098;6.168;2022-12-10T07:25:27;109.07;;;29.37;;
55720;SDS011;41626;53.098;6.168;2022-12-10T07:27:53;118.03;;;29.30;;
55720;SDS011;41626;53.098;6.168;2022-12-10T07:30:19;99.05;;;28.17;;
55720;SDS011;41626;53.098;6.168;2022-12-10T07:32:45;108.37;;;27.83;;
55720;SDS011;41626;53.098;6.168;2022-12-10T07:35:10;105.53;;;27.37;;
55720;SDS011;41626;53.098;6.168;2022-12-10T07:37:36;104.47;;;26.63;;
55720;SDS011;41626;53.098;6.168;2022-12-10T07:40:02;105.57;;;25.98;;
55720;SDS011;41626;53.098;6.168;2022-12-10T07:42:28;118.13;;;25.23;;
55720;SDS011;41626;53.098;6.168;2022-12-10T07:44:54;116.03;;;26.10;;
55720;SDS011;41626;53.098;6.168;2022-12-10T07:47:19;101.97;;;23.27;;
55720;SDS011;41626;53.098;6.168;2022-12-10T07:49:45;123.47;;;26.73;;
55720;SDS011;41626;53.098;6.168;2022-12-10T07:52:11;125.05;;;26.80;;
55720;SDS011;41626;53.098;6.168;2022-12-10T07:54:36;125.03;;;26.52;;
55720;SDS011;41626;53.098;6.168;2022-12-10T07:57:02;114.20;;;27.95;;
55720;SDS011;41626;53.098;6.168;2022-12-10T07:59:28;90.87;;;25.47;;
55720;SDS011;41626;53.098;6.168;2022-12-10T08:01:54;158.68;;;31.63;;
55720;SDS011;41626;53.098;6.168;2022-12-10T08:04:20;144.37;;;29.50;;
55720;SDS011;41626;53.098;6.168;2022-12-10T08:06:46;92.77;;;28.53;;
55720;SDS011;41626;53.098;6.168;2022-12-10T08:09:12;87.88;;;28.75;;
55720;SDS011;41626;53.098;6.168;2022-12-10T08:11:38;125.57;;;30.67;;
55720;SDS011;41626;53.098;6.168;2022-12-10T08:14:04;102.90;;;26.10;;
55720;SDS011;41626;53.098;6.168;2022-12-10T08:16:30;118.38;;;28.00;;
55720;SDS011;41626;53.098;6.168;2022-12-10T08:18:57;107.18;;;29.27;;
55720;SDS011;41626;53.098;6.168;2022-12-10T08:21:25;144.50;;;33.10;;
55720;SDS011;41626;53.098;6.168;2022-12-10T08:23:54;105.13;;;27.05;;
55720;SDS011;41626;53.098;6.168;2022-12-10T08:26:22;110.43;;;28.95;;
55720;SDS011;41626;53.098;6.168;2022-12-10T08:28:50;101.47;;;28.48;;
55720;SDS011;41626;53.098;6.168;2022-12-10T08:31:17;99.57;;;29.70;;
55720;SDS011;41626;53.098;6.168;2022-12-10T08:33:44;79.75;;;27.45;;
55720;SDS011;41626;53.098;6.168;2022-12-10T08:36:11;88.40;;;27.83;;
55720;SDS011;41626;53.098;6.168;2022-12-10T08:38:39;107.33;;;26.83;;
55720;SDS011;41626;53.098;6.168;2022-12-10T08:41:09;105.70;;;28.60;;
55720;SDS011;41626;53.098;6.168;2022-12-10T08:43:40;114.68;;;29.92;;
55720;SDS011;41626;53.098;6.168;2022-12-10T08:46:06;108.70;;;29.20;;
55720;SDS011;41626;53.098;6.168;2022-12-10T08:48:32;84.88;;;27.73;;
55720;SDS011;41626;53.098;6.168;2022-12-10T08:50:59;100.80;;;29.17;;
55720;SDS011;41626;53.098;6.168;2022-12-10T08:53:25;144.88;;;30.80;;
55720;SDS011;41626;53.098;6.168;2022-12-10T08:55:51;84.90;;;26.77;;
55720;SDS011;41626;53.098;6.168;2022-12-10T08:58:18;101.03;;;28.92;;
55720;SDS011;41626;53.098;6.168;2022-12-10T09:00:45;77.40;;;26.48;;
55720;SDS011;41626;53.098;6.168;2022-12-10T09:03:12;120.82;;;29.65;;
55720;SDS011;41626;53.098;6.168;2022-12-10T09:05:38;117.63;;;28.55;;
55720;SDS011;41626;53.098;6.168;2022-12-10T09:08:04;101.83;;;29.27;;
55720;SDS011;41626;53.098;6.168;2022-12-10T09:10:30;116.43;;;29.45;;
55720;SDS011;41626;53.098;6.168;2022-12-10T09:12:56;118.95;;;29.65;;
55720;SDS011;41626;53.098;6.168;2022-12-10T09:15:22;99.95;;;29.27;;
55720;SDS011;41626;53.098;6.168;2022-12-10T09:17:48;99.63;;;31.25;;
55720;SDS011;41626;53.098;6.168;2022-12-10T09:20:13;108.25;;;29.88;;
55720;SDS011;41626;53.098;6.168;2022-12-10T09:22:39;102.85;;;30.50;;
55720;SDS011;41626;53.098;6.168;2022-12-10T09:25:06;101.03;;;30.15;;
55720;SDS011;41626;53.098;6.168;2022-12-10T09:27:35;113.78;;;31.05;;
55720;SDS011;41626;53.098;6.168;2022-12-10T09:30:01;110.00;;;31.77;;
55720;SDS011;41626;53.098;6.168;2022-12-10T09:32:28;116.00;;;32.15;;
55720;SDS011;41626;53.098;6.168;2022-12-10T09:34:54;107.60;;;30.67;;
55720;SDS011;41626;53.098;6.168;2022-12-10T09:37:20;143.10;;;33.27;;
55720;SDS011;41626;53.098;6.168;2022-12-10T09:39:45;91.47;;;29.10;;
55720;SDS011;41626;53.098;6.168;2022-12-10T09:48:15;106.72;;;29.35;;
55720;SDS011;41626;53.098;6.168;2022-12-10T09:51:23;138.93;;;32.63;;
55720;SDS011;41626;53.098;6.168;2022-12-10T09:53:54;170.20;;;34.53;;
55720;SDS011;41626;53.098;6.168;2022-12-10T09:56:42;95.18;;;28.83;;
55720;SDS011;41626;53.098;6.168;2022-12-10T09:59:16;107.35;;;31.42;;
55720;SDS011;41626;53.098;6.168;2022-12-10T10:02:03;146.02;;;31.63;;
55720;SDS011;41626;53.098;6.168;2022-12-10T10:04:46;112.15;;;27.77;;
55720;SDS011;41626;53.098;6.168;2022-12-10T10:07:23;126.13;;;32.42;;
55720;SDS011;41626;53.098;6.168;2022-12-10T10:09:51;90.10;;;29.42;;
55720;SDS011;41626;53.098;6.168;2022-12-10T10:12:22;91.05;;;29.25;;
55720;SDS011;41626;53.098;6.168;2022-12-10T10:14:48;110.30;;;29.08;;
55720;SDS011;41626;53.098;6.168;2022-12-10T10:17:48;91.80;;;28.70;;
55720;SDS011;41626;53.098;6.168;2022-12-10T10:20:11;118.60;;;30.20;;
55720;SDS011;41626;53.098;6.168;2022-12-10T10:22:38;96.68;;;29.17;;
55720;SDS011;41626;53.098;6.168;2022-12-10T10:25:05;95.88;;;28.00;;
55720;SDS011;41626;53.098;6.168;2022-12-10T10:27:37;111.20;;;27.50;;
55720;SDS011;41626;53.098;6.168;2022-12-10T10:30:03;128.70;;;28.70;;
55720;SDS011;41626;53.098;6.168;2022-12-10T10:35:01;94.00;;;24.83;;
55720;SDS011;41626;53.098;6.168;2022-12-10T10:37:29;86.28;;;23.00;;
55720;SDS011;41626;53.098;6.168;2022-12-10T10:40:04;65.40;;;24.25;;
55720;SDS011;41626;53.098;6.168;2022-12-10T10:50:46;72.88;;;25.80;;
55720;SDS011;41626;53.098;6.168;2022-12-10T10:55:48;61.55;;;25.33;;
55720;SDS011;41626;53.098;6.168;2022-12-10T10:58:18;69.18;;;27.85;;
55720;SDS011;41626;53.098;6.168;2022-12-10T11:00:55;70.13;;;25.95;;
55720;SDS011;41626;53.098;6.168;2022-12-10T11:03:33;68.95;;;25.30;;
55720;SDS011;41626;53.098;6.168;2022-12-10T11:06:04;69.95;;;27.65;;
55720;SDS011;41626;53.098;6.168;2022-12-10T11:08:31;56.22;;;24.90;;
55720;SDS011;41626;53.098;6.168;2022-12-10T11:11:18;59.40;;;27.42;;
55720;SDS011;41626;53.098;6.168;2022-12-10T11:13:45;57.88;;;25.80;;
55720;SDS011;41626;53.098;6.168;2022-12-10T11:16:21;73.13;;;29.63;;
55720;SDS011;41626;53.098;6.168;2022-12-10T11:18:51;85.22;;;29.75;;
55720;SDS011;41626;53.098;6.168;2022-12-10T11:21:27;98.13;;;30.70;;
55720;SDS011;41626;53.098;6.168;2022-12-10T11:23:55;73.47;;;28.67;;
55720;SDS011;41626;53.098;6.168;2022-12-10T11:26:29;72.03;;;28.80;;
55720;SDS011;41626;53.098;6.168;2022-12-10T11:34:40;62.22;;;26.02;;
55720;SDS011;41626;53.098;6.168;2022-12-10T11:37:37;50.03;;;23.13;;
55720;SDS011;41626;53.098;6.168;2022-12-10T11:51:05;55.65;;;26.90;;
55720;SDS011;41626;53.098;6.168;2022-12-10T11:53:40;51.97;;;24.95;;
55720;SDS011;41626;53.098;6.168;2022-12-10T11:56:24;50.35;;;26.02;;
55720;SDS011;41626;53.098;6.168;2022-12-10T11:59:04;41.47;;;23.38;;
55720;SDS011;41626;53.098;6.168;2022-12-10T12:04:49;49.67;;;26.05;;
55720;SDS011;41626;53.098;6.168;2022-12-10T12:09:54;52.13;;;27.70;;
55720;SDS011;41626;53.098;6.168;2022-12-10T12:12:44;54.17;;;26.35;;
55720;SDS011;41626;53.098;6.168;2022-12-10T12:15:28;47.87;;;25.33;;
55720;SDS011;41626;53.098;6.168;2022-12-10T12:17:56;62.00;;;31.00;;
55720;SDS011;41626;53.098;6.168;2022-12-10T12:20:30;76.43;;;30.13;;
55720;SDS011;41626;53.098;6.168;2022-12-10T12:23:02;60.20;;;30.83;;
55720;SDS011;41626;53.098;6.168;2022-12-10T12:25:35;55.05;;;28.08;;
55720;SDS011;41626;53.098;6.168;2022-12-10T12:28:09;61.80;;;30.88;;
55720;SDS011;41626;53.098;6.168;2022-12-10T12:30:45;62.78;;;29.58;;
55720;SDS011;41626;53.098;6.168;2022-12-10T12:33:20;53.60;;;29.02;;
55720;SDS011;41626;53.098;6.168;2022-12-10T12:35:58;52.47;;;28.88;;
55720;SDS011;41626;53.098;6.168;2022-12-10T12:38:35;53.35;;;28.55;;
55720;SDS011;41626;53.098;6.168;2022-12-10T12:41:30;52.33;;;29.48;;
55720;SDS011;41626;53.098;6.168;2022-12-10T12:47:02;43.37;;;24.27;;
55720;SDS011;41626;53.098;6.168;2022-12-10T12:49:39;54.35;;;28.90;;
55720;SDS011;41626;53.098;6.168;2022-12-10T12:54:55;60.97;;;29.08;;
55720;SDS011;41626;53.098;6.168;2022-12-10T12:57:30;54.47;;;30.40;;
55720;SDS011;41626;53.098;6.168;2022-12-10T13:00:03;63.13;;;32.25;;
55720;SDS011;41626;53.098;6.168;2022-12-10T13:05:50;58.87;;;32.03;;
55720;SDS011;41626;53.098;6.168;2022-12-10T13:15:54;54.72;;;30.08;;
55720;SDS011;41626;53.098;6.168;2022-12-10T13:18:23;51.25;;;29.67;;
55720;SDS011;41626;53.098;6.168;2022-12-10T13:21:17;54.95;;;29.40;;
55720;SDS011;41626;53.098;6.168;2022-12-10T13:24:06;56.90;;;30.27;;
55720;SDS011;41626;53.098;6.168;2022-12-10T13:26:34;58.28;;;30.10;;
55720;SDS011;41626;53.098;6.168;2022-12-10T13:29:23;54.60;;;31.63;;
55720;SDS011;41626;53.098;6.168;2022-12-10T13:32:03;64.90;;;31.88;;
55720;SDS011;41626;53.098;6.168;2022-12-10T13:34:36;71.88;;;34.20;;
55720;SDS011;41626;53.098;6.168;2022-12-10T13:37:03;62.30;;;32.95;;
55720;SDS011;41626;53.098;6.168;2022-12-10T13:39:33;79.15;;;36.75;;
55720;SDS011;41626;53.098;6.168;2022-12-10T13:47:27;67.47;;;34.60;;
55720;SDS011;41626;53.098;6.168;2022-12-10T13:49:57;69.68;;;33.47;;
55720;SDS011;41626;53.098;6.168;2022-12-10T13:52:30;69.40;;;35.35;;
55720;SDS011;41626;53.098;6.168;2022-12-10T14:01:02;62.88;;;32.45;;
55720;SDS011;41626;53.098;6.168;2022-12-10T14:03:45;75.38;;;31.95;;
55720;SDS011;41626;53.098;6.168;2022-12-10T14:06:37;77.65;;;37.17;;
55720;SDS011;41626;53.098;6.168;2022-12-10T14:09:16;80.88;;;35.45;;
55720;SDS011;41626;53.098;6.168;2022-12-10T14:11:59;71.47;;;33.95;;
55720;SDS011;41626;53.098;6.168;2022-12-10T14:14:34;79.10;;;35.05;;
55720;SDS011;41626;53.098;6.168;2022-12-10T14:17:09;100.32;;;38.97;;
55720;SDS011;41626;53.098;6.168;2022-12-10T14:19:41;84.32;;;34.45;;
55720;SDS011;41626;53.098;6.168;2022-12-10T14:22:08;129.30;;;39.60;;
55720;SDS011;41626;53.098;6.168;2022-12-10T14:24:43;72.75;;;32.80;;
55720;SDS011;41626;53.098;6.168;2022-12-10T14:27:20;74.38;;;33.00;;
55720;SDS011;41626;53.098;6.168;2022-12-10T14:29:51;105.35;;;36.67;;
55720;SDS011;41626;53.098;6.168;2022-12-10T14:34:59;124.38;;;37.47;;
55720;SDS011;41626;53.098;6.168;2022-12-10T14:37:27;155.37;;;42.60;;
55720;SDS011;41626;53.098;6.168;2022-12-10T14:39:55;104.35;;;37.10;;
55720;SDS011;41626;53.098;6.168;2022-12-10T14:42:21;102.22;;;36.05;;
55720;SDS011;41626;53.098;6.168;2022-12-10T14:44:58;99.88;;;35.33;;
55720;SDS011;41626;53.098;6.168;2022-12-10T14:47:27;108.25;;;36.83;;
55720;SDS011;41626;53.098;6.168;2022-12-10T14:50:01;99.57;;;36.10;;
55720;SDS011;41626;53.098;6.168;2022-12-10T14:52:33;164.93;;;45.85;;
55720;SDS011;41626;53.098;6.168;2022-12-10T14:55:12;128.23;;;40.03;;
55720;SDS011;41626;53.098;6.168;2022-12-10T14:57:40;142.43;;;38.05;;
55720;SDS011;41626;53.098;6.168;2022-12-10T15:00:22;163.35;;;37.72;;
55720;SDS011;41626;53.098;6.168;2022-12-10T15:02:55;180.77;;;40.60;;
55720;SDS011;41626;53.098;6.168;2022-12-10T15:05:27;119.40;;;36.83;;
55720;SDS011;41626;53.098;6.168;2022-12-10T15:07:59;179.70;;;39.90;;
55720;SDS011;41626;53.098;6.168;2022-12-10T15:10:37;130.97;;;35.23;;
55720;SDS011;41626;53.098;6.168;2022-12-10T15:13:05;117.05;;;33.95;;
55720;SDS011;41626;53.098;6.168;2022-12-10T15:21:19;93.80;;;34.00;;
55720;SDS011;41626;53.098;6.168;2022-12-10T15:23:47;154.98;;;37.65;;
55720;SDS011;41626;53.098;6.168;2022-12-10T15:26:20;124.97;;;37.17;;
55720;SDS011;41626;53.098;6.168;2022-12-10T15:28:50;112.47;;;34.72;;
55720;SDS011;41626;53.098;6.168;2022-12-10T15:33:53;135.82;;;36.17;;
55720;SDS011;41626;53.098;6.168;2022-12-10T15:41:56;122.82;;;32.95;;
55720;SDS011;41626;53.098;6.168;2022-12-10T15:44:27;97.38;;;32.95;;
55720;SDS011;41626;53.098;6.168;2022-12-10T15:49:23;83.47;;;32.28;;
55720;SDS011;41626;53.098;6.168;2022-12-10T15:51:49;89.07;;;31.55;;
55720;SDS011;41626;53.098;6.168;2022-12-10T15:54:19;82.47;;;30.77;;
55720;SDS011;41626;53.098;6.168;2022-12-10T15:56:46;88.38;;;27.77;;
55720;SDS011;41626;53.098;6.168;2022-12-10T15:59:12;101.85;;;30.75;;
55720;SDS011;41626;53.098;6.168;2022-12-10T16:01:39;99.47;;;31.33;;
55720;SDS011;41626;53.098;6.168;2022-12-10T16:04:04;72.60;;;28.10;;
55720;SDS011;41626;53.098;6.168;2022-12-10T16:06:30;72.37;;;25.30;;
55720;SDS011;41626;53.098;6.168;2022-12-10T16:08:56;67.30;;;25.93;;
55720;SDS011;41626;53.098;6.168;2022-12-10T16:11:21;67.97;;;24.47;;
55720;SDS011;41626;53.098;6.168;2022-12-10T16:13:51;65.23;;;26.73;;
55720;SDS011;41626;53.098;6.168;2022-12-10T16:16:19;64.65;;;26.33;;
55720;SDS011;41626;53.098;6.168;2022-12-10T16:18:45;65.38;;;27.38;;
55720;SDS011;41626;53.098;6.168;2022-12-10T16:21:11;57.72;;;23.67;;
55720;SDS011;41626;53.098;6.168;2022-12-10T16:23:36;50.93;;;25.70;;